Burns Lake, Canada
Current Conditions -  °F | °C
As of 3:00 PM on Thursday 27 Nov 2014 (Local Time) from CYYD Reporting Station
Light Snow Light Snow  
Wind Chill:   Ceiling: 3500
Heat Index: 18°   Visibility: 10mi
Dew Point: 12°   Wind: 12mph
Humidity: 79%   Direction: 180°S
Pressure: 29.79"   Gusts: NA
Location:  54.23°N, 125.76°W
Report Text: CYYD 272300Z 18010KT 10SM -SN DRSN BKN035 OVC050 M08/M11 A2979 RMK SC6SC2 SLP116
Loading
Personal Weather Stations






























Interactive Weather Map New forecast layout! Learn more

10-Day Weather Forecast

Advertisements
Track Severe Weather on mobile